createdAt,value
2018-10-09T00:00:54.377Z,10.15
2018-10-09T00:01:54.224Z,10.14
2018-10-09T00:02:54.096Z,10.21
2018-10-09T00:03:53.970Z,10.12
2018-10-09T00:04:53.844Z,10.22
2018-10-09T00:05:53.721Z,10.25
2018-10-09T00:06:53.593Z,10.17
2018-10-09T00:07:53.469Z,10.10
2018-10-09T00:08:53.341Z,10.12
2018-10-09T00:09:53.215Z,10.09
2018-10-09T00:10:53.088Z,10.14
2018-10-09T00:11:52.962Z,10.15
2018-10-09T00:12:52.836Z,10.17
2018-10-09T00:13:52.710Z,10.18
2018-10-09T00:14:52.582Z,10.14
2018-10-09T00:15:52.459Z,10.15
2018-10-09T00:16:52.330Z,10.18
2018-10-09T00:17:52.206Z,10.10
2018-10-09T00:18:52.078Z,10.03
2018-10-09T00:19:51.957Z,10.04
2018-10-09T00:20:51.824Z,10.03
2018-10-09T00:21:51.704Z,10.09
2018-10-09T00:22:51.595Z,10.09
2018-10-09T00:23:51.448Z,10.06
2018-10-09T00:24:51.323Z,10.12
2018-10-09T00:25:51.198Z,10.15
2018-10-09T00:26:51.071Z,10.03
2018-10-09T00:27:50.944Z,10.03
2018-10-09T00:28:50.815Z,10.03
2018-10-09T00:29:50.694Z,10.10
2018-10-09T00:30:50.565Z,10.03
2018-10-09T00:31:50.440Z,10.06
2018-10-09T00:32:50.312Z,10.03
2018-10-09T00:33:50.185Z,10.07
2018-10-09T00:34:50.059Z,10.00
2018-10-09T00:35:49.935Z,10.07
2018-10-09T00:36:49.808Z,10.06
2018-10-09T00:37:49.683Z,10.06
2018-10-09T00:38:49.556Z,10.17
2018-10-09T00:39:49.429Z,10.15
2018-10-09T00:40:49.305Z,10.17
2018-10-09T00:41:49.176Z,10.12
2018-10-09T00:42:49.051Z,10.00
2018-10-09T00:43:48.927Z,9.99
2018-10-09T00:44:48.799Z,9.88
2018-10-09T00:45:48.673Z,9.86
2018-10-09T00:46:48.548Z,9.86
2018-10-09T00:47:48.421Z,9.96
2018-10-09T00:48:48.294Z,9.96
2018-10-09T00:49:48.169Z,9.97
2018-10-09T00:50:48.045Z,10.03
2018-10-09T00:51:47.917Z,9.99
2018-10-09T00:52:47.795Z,10.06
2018-10-09T00:53:47.663Z,10.06
2018-10-09T00:54:47.538Z,10.01
2018-10-09T00:55:47.412Z,10.07
2018-10-09T00:56:47.284Z,10.04
2018-10-09T00:57:47.159Z,9.96
2018-10-09T00:58:47.037Z,10.06
2018-10-09T00:59:46.908Z,9.93
2018-10-09T01:00:46.784Z,10.03
2018-10-09T01:01:46.654Z,10.03
2018-10-09T01:02:46.527Z,10.03
2018-10-09T01:03:46.402Z,10.06
2018-10-09T01:04:46.274Z,10.04
2018-10-09T01:05:46.151Z,10.10
2018-10-09T01:06:46.025Z,10.06
2018-10-09T01:07:45.897Z,10.07
2018-10-09T01:08:45.768Z,10.00
2018-10-09T01:09:45.647Z,10.00
2018-10-09T01:10:45.519Z,10.01
2018-10-09T01:11:45.392Z,10.01
2018-10-09T01:12:45.265Z,10.01
2018-10-09T01:13:45.138Z,9.96
2018-10-09T01:14:45.013Z,10.00
2018-10-09T01:15:44.888Z,10.10
2018-10-09T01:16:44.761Z,9.91
2018-10-09T01:17:44.635Z,9.89
2018-10-09T01:18:44.510Z,9.97
2018-10-09T01:19:44.384Z,9.93
2018-10-09T01:20:44.254Z,9.86
2018-10-09T01:21:44.133Z,9.96
2018-10-09T01:22:44.006Z,9.94
2018-10-09T01:23:43.877Z,10.06
2018-10-09T01:24:43.756Z,10.00
2018-10-09T01:25:43.626Z,10.03
2018-10-09T01:26:43.499Z,9.94
2018-10-09T01:27:43.373Z,9.93
2018-10-09T01:28:43.264Z,9.88
2018-10-09T01:29:43.119Z,9.88
2018-10-09T01:30:42.995Z,9.88
2018-10-09T01:31:42.870Z,9.86
2018-10-09T01:32:42.742Z,9.76
2018-10-09T01:33:42.615Z,9.79
2018-10-09T01:34:42.488Z,9.75
2018-10-09T01:35:42.363Z,9.78
2018-10-09T01:36:42.236Z,9.71
2018-10-09T01:37:42.110Z,9.71
2018-10-09T01:38:41.985Z,9.68
2018-10-09T01:39:41.864Z,9.78
2018-10-09T01:40:41.733Z,9.75
2018-10-09T01:41:41.604Z,9.71
2018-10-09T01:42:41.480Z,9.70
2018-10-09T01:43:41.356Z,9.76
2018-10-09T01:44:41.225Z,9.86
2018-10-09T01:45:41.103Z,9.89
2018-10-09T01:46:40.977Z,9.81
2018-10-09T01:47:40.850Z,9.82
2018-10-09T01:48:40.726Z,9.75
2018-10-09T01:49:40.596Z,9.71
2018-10-09T01:50:40.468Z,9.79
2018-10-09T01:51:40.348Z,9.73
2018-10-09T01:52:40.216Z,9.82
2018-10-09T01:53:40.090Z,9.85
2018-10-09T01:54:39.965Z,9.85
2018-10-09T01:55:39.839Z,9.78
2018-10-09T01:56:39.713Z,9.70
2018-10-09T01:57:39.590Z,9.70
2018-10-09T01:58:39.461Z,9.76
2018-10-09T01:59:39.337Z,9.75
2018-10-09T02:00:39.205Z,9.64
2018-10-09T02:01:39.080Z,9.66
2018-10-09T02:02:38.958Z,9.63
2018-10-09T02:03:38.826Z,9.67
2018-10-09T02:04:38.699Z,9.63
2018-10-09T02:05:38.572Z,9.58
2018-10-09T02:06:38.450Z,9.53
2018-10-09T02:07:38.322Z,9.61
2018-10-09T02:08:38.200Z,9.60
2018-10-09T02:09:38.067Z,9.57
2018-10-09T02:10:37.942Z,9.52
2018-10-09T02:11:37.817Z,9.57
2018-10-09T02:12:37.692Z,9.53
2018-10-09T02:13:37.563Z,9.49
2018-10-09T02:14:37.438Z,9.50
2018-10-09T02:15:37.314Z,9.50
2018-10-09T02:16:37.184Z,9.52
2018-10-09T02:17:37.057Z,9.60
2018-10-09T02:18:36.931Z,9.56
2018-10-09T02:19:36.806Z,9.64
2018-10-09T02:20:36.680Z,9.57
2018-10-09T02:21:36.551Z,9.53
2018-10-09T02:22:36.434Z,9.50
2018-10-09T02:23:36.302Z,9.50
2018-10-09T02:24:36.174Z,9.50
2018-10-09T02:25:36.046Z,9.53
2018-10-09T02:26:35.919Z,9.49
2018-10-09T02:27:35.794Z,9.42
2018-10-09T02:28:35.667Z,9.40
2018-10-09T02:29:35.545Z,9.45
2018-10-09T02:30:35.415Z,9.45
2018-10-09T02:31:35.289Z,9.50
2018-10-09T02:32:35.163Z,9.52
2018-10-09T02:33:35.068Z,9.50
2018-10-09T02:34:34.908Z,9.50
2018-10-09T02:35:34.782Z,9.53
2018-10-09T02:36:34.663Z,9.45
2018-10-09T02:37:34.528Z,9.56
2018-10-09T02:38:34.404Z,9.53
2018-10-09T02:39:34.278Z,9.57
2018-10-09T02:40:34.152Z,9.66
2018-10-09T02:41:34.021Z,9.63
2018-10-09T02:42:33.899Z,9.67
2018-10-09T02:43:33.773Z,9.57
2018-10-09T02:44:33.646Z,9.58
2018-10-09T02:45:33.518Z,9.53
2018-10-09T02:46:33.390Z,9.50
2018-10-09T02:47:33.268Z,9.49
2018-10-09T02:48:33.137Z,9.52
2018-10-09T02:49:33.010Z,9.48
2018-10-09T02:50:32.882Z,9.52
2018-10-09T02:51:32.773Z,9.50
2018-10-09T02:52:32.631Z,9.42
2018-10-09T02:53:32.504Z,9.43
2018-10-09T02:54:32.377Z,9.42
2018-10-09T02:55:32.252Z,9.46
2018-10-09T02:56:32.123Z,9.40
2018-10-09T02:57:31.998Z,9.42
2018-10-09T02:58:31.871Z,9.34
2018-10-09T02:59:31.743Z,9.35
2018-10-09T03:00:31.618Z,9.31
2018-10-09T03:01:31.490Z,9.32
2018-10-09T03:02:31.364Z,9.42
2018-10-09T03:03:31.240Z,9.43
2018-10-09T03:04:31.110Z,9.39
2018-10-09T03:05:30.985Z,9.45
2018-10-09T03:06:30.859Z,9.38
2018-10-09T03:07:30.732Z,9.35
2018-10-09T03:08:30.613Z,9.38
2018-10-09T03:09:30.480Z,9.34
2018-10-09T03:10:30.354Z,9.48
2018-10-09T03:11:30.226Z,9.42
2018-10-09T03:12:30.098Z,9.43
2018-10-09T03:13:29.972Z,9.38
2018-10-09T03:14:29.846Z,9.40
2018-10-09T03:15:29.721Z,9.46
2018-10-09T03:16:29.593Z,9.45
2018-10-09T03:17:29.470Z,9.43
2018-10-09T03:18:29.340Z,9.46
2018-10-09T03:19:29.212Z,9.32
2018-10-09T03:20:29.141Z,9.38
2018-10-09T03:21:28.962Z,9.32
2018-10-09T03:22:28.834Z,9.30
2018-10-09T03:23:28.706Z,9.34
2018-10-09T03:24:28.579Z,9.35
2018-10-09T03:25:28.454Z,9.45
2018-10-09T03:26:28.327Z,9.38
2018-10-09T03:27:28.197Z,9.28
2018-10-09T03:28:28.071Z,9.34
2018-10-09T03:29:27.945Z,9.30
2018-10-09T03:30:27.820Z,9.28
2018-10-09T03:31:27.698Z,9.35
2018-10-09T03:32:27.575Z,9.34
2018-10-09T03:33:27.440Z,9.39
2018-10-09T03:34:27.314Z,9.39
2018-10-09T03:35:27.185Z,9.40
2018-10-09T03:36:27.070Z,9.42
2018-10-09T03:37:26.934Z,9.42
2018-10-09T03:38:26.808Z,9.48
2018-10-09T03:39:26.680Z,9.43
2018-10-09T03:40:26.553Z,9.46
2018-10-09T03:41:26.428Z,9.45
2018-10-09T03:42:26.299Z,9.46
2018-10-09T03:43:26.176Z,9.49
2018-10-09T03:44:26.046Z,9.40
2018-10-09T03:45:25.924Z,9.40
2018-10-09T03:46:25.797Z,9.43
2018-10-09T03:47:25.667Z,9.45
2018-10-09T03:48:25.539Z,9.45
2018-10-09T03:49:25.417Z,9.49
2018-10-09T03:50:25.293Z,9.43
2018-10-09T03:51:25.162Z,9.45
2018-10-09T03:52:25.038Z,9.42
2018-10-09T03:53:24.906Z,9.43
2018-10-09T03:54:24.781Z,9.32
2018-10-09T03:55:24.655Z,9.30
2018-10-09T03:56:24.532Z,9.38
2018-10-09T03:57:24.400Z,9.35
2018-10-09T03:58:24.276Z,9.34
2018-10-09T03:59:24.148Z,9.42
2018-10-09T04:00:24.023Z,9.46
2018-10-09T04:01:23.894Z,9.46
2018-10-09T04:02:23.766Z,9.24
2018-10-09T04:03:23.641Z,9.31
2018-10-09T04:04:23.514Z,9.34
2018-10-09T04:05:23.390Z,9.48
2018-10-09T04:06:23.261Z,9.42
2018-10-09T04:07:23.134Z,9.32
2018-10-09T04:08:23.007Z,9.34
2018-10-09T04:09:22.899Z,9.43
2018-10-09T04:10:22.754Z,9.28
2018-10-09T04:11:22.629Z,9.43
2018-10-09T04:12:22.499Z,9.50
2018-10-09T04:13:22.374Z,9.49
2018-10-09T04:14:22.248Z,9.50
2018-10-09T04:15:22.120Z,9.46
2018-10-09T04:16:21.995Z,9.34
2018-10-09T04:17:21.870Z,9.31
2018-10-09T04:18:21.743Z,9.34
2018-10-09T04:19:21.640Z,9.43
2018-10-09T04:20:21.489Z,9.45
2018-10-09T04:21:21.361Z,9.40
2018-10-09T04:22:21.234Z,9.45
2018-10-09T04:23:21.107Z,9.45
2018-10-09T04:24:20.981Z,9.43
2018-10-09T04:25:20.857Z,9.42
2018-10-09T04:26:20.728Z,9.39
2018-10-09T04:27:20.600Z,9.46
2018-10-09T04:28:20.478Z,9.39
2018-10-09T04:29:20.351Z,9.42
2018-10-09T04:30:20.221Z,9.43
2018-10-09T04:31:20.095Z,9.43
2018-10-09T04:32:19.967Z,9.43
2018-10-09T04:33:19.841Z,9.35
2018-10-09T04:34:19.715Z,9.32
2018-10-09T04:35:19.641Z,9.39
2018-10-09T04:36:19.457Z,9.39
2018-10-09T04:37:19.332Z,9.38
2018-10-09T04:38:19.207Z,9.39
2018-10-09T04:39:19.081Z,9.40
2018-10-09T04:40:18.953Z,9.38
2018-10-09T04:41:18.825Z,9.38
2018-10-09T04:42:18.701Z,9.34
2018-10-09T04:43:18.573Z,9.46
2018-10-09T04:44:18.447Z,9.42
2018-10-09T04:45:18.321Z,9.42
2018-10-09T04:46:18.192Z,9.42
2018-10-09T04:47:18.067Z,9.32
2018-10-09T04:48:17.941Z,9.24
2018-10-09T04:49:17.814Z,9.21
2018-10-09T04:50:17.688Z,9.21
2018-10-09T04:51:17.559Z,9.21
2018-10-09T04:52:17.436Z,9.25
2018-10-09T04:53:17.308Z,9.24
2018-10-09T04:54:17.182Z,9.20
2018-10-09T04:55:17.054Z,9.20
2018-10-09T04:56:16.926Z,9.18
2018-10-09T04:57:16.806Z,9.18
2018-10-09T04:58:16.675Z,9.12
2018-10-09T04:59:16.551Z,9.28
2018-10-09T05:00:16.422Z,9.31
2018-10-09T05:01:16.293Z,9.27
2018-10-09T05:02:16.167Z,9.31
2018-10-09T05:03:16.042Z,9.28
2018-10-09T05:04:15.915Z,9.30
2018-10-09T05:05:15.788Z,9.32
2018-10-09T05:06:15.662Z,9.45
2018-10-09T05:07:15.534Z,9.48
2018-10-09T05:08:15.407Z,9.34
2018-10-09T05:09:15.280Z,9.39
2018-10-09T05:10:15.153Z,9.31
2018-10-09T05:11:15.027Z,9.25
2018-10-09T05:12:14.904Z,9.27
2018-10-09T05:13:14.774Z,9.06
2018-10-09T05:14:14.648Z,9.15
2018-10-09T05:15:14.522Z,9.18
2018-10-09T05:16:14.394Z,9.23
2018-10-09T05:17:14.267Z,9.24
2018-10-09T05:18:14.140Z,9.23
2018-10-09T05:19:14.015Z,9.23
2018-10-09T05:20:13.886Z,9.25
2018-10-09T05:21:13.762Z,9.18
2018-10-09T05:22:13.634Z,9.15
2018-10-09T05:23:13.544Z,9.23
2018-10-09T05:24:13.379Z,9.18
2018-10-09T05:25:13.250Z,9.09
2018-10-09T05:26:13.127Z,9.24
2018-10-09T05:27:13.000Z,9.38
2018-10-09T05:28:12.872Z,9.38
2018-10-09T05:29:12.744Z,9.25
2018-10-09T05:30:12.643Z,9.27
2018-10-09T05:31:12.564Z,9.23
2018-10-09T05:32:12.365Z,9.16
2018-10-09T05:33:12.242Z,9.20
2018-10-09T05:34:12.109Z,9.20
2018-10-09T05:35:11.982Z,9.15
2018-10-09T05:36:11.856Z,9.25
2018-10-09T05:37:11.727Z,9.09
2018-10-09T05:38:11.609Z,9.10
2018-10-09T05:39:11.521Z,9.06
2018-10-09T05:40:11.349Z,9.04
2018-10-09T05:41:11.223Z,9.05
2018-10-09T05:42:11.094Z,8.99
2018-10-09T05:43:10.969Z,9.12
2018-10-09T05:44:10.871Z,9.09
2018-10-09T05:45:10.714Z,9.01
2018-10-09T05:46:10.593Z,9.10
2018-10-09T05:47:10.462Z,9.02
2018-10-09T05:48:10.335Z,8.99
2018-10-09T05:49:10.209Z,8.99
2018-10-09T05:50:10.083Z,8.97
2018-10-09T05:51:09.955Z,8.99
2018-10-09T05:52:09.827Z,9.04
2018-10-09T05:53:09.702Z,8.99
2018-10-09T05:54:09.573Z,9.01
2018-10-09T05:55:09.448Z,9.04
2018-10-09T05:56:09.321Z,9.06
2018-10-09T05:57:09.193Z,8.96
2018-10-09T05:58:09.139Z,8.99
2018-10-09T05:59:08.941Z,9.01
2018-10-09T06:00:08.813Z,9.05
2018-10-09T06:01:08.686Z,9.05
2018-10-09T06:02:08.562Z,9.09
2018-10-09T06:03:08.433Z,9.02
2018-10-09T06:04:08.307Z,9.05
2018-10-09T06:05:08.180Z,9.06
2018-10-09T06:06:08.053Z,9.06
2018-10-09T06:07:07.927Z,9.15
2018-10-09T06:08:07.798Z,9.20
2018-10-09T06:09:07.673Z,9.20
2018-10-09T06:10:07.596Z,9.10
2018-10-09T06:11:07.423Z,9.10
2018-10-09T06:12:07.296Z,9.12
2018-10-09T06:13:07.165Z,9.20
2018-10-09T06:14:07.039Z,9.20
2018-10-09T06:15:06.913Z,9.24
2018-10-09T06:16:06.805Z,9.15
2018-10-09T06:17:06.660Z,9.18
2018-10-09T06:18:06.532Z,9.24
2018-10-09T06:19:06.406Z,9.23
2018-10-09T06:20:06.278Z,9.28
2018-10-09T06:21:06.154Z,9.23
2018-10-09T06:22:06.135Z,9.24
2018-10-09T06:23:05.900Z,9.27
2018-10-09T06:24:05.772Z,9.25
2018-10-09T06:25:05.645Z,9.27
2018-10-09T06:26:05.518Z,9.27
2018-10-09T06:27:05.393Z,9.32
2018-10-09T06:28:05.388Z,9.38
2018-10-09T06:29:05.137Z,9.28
2018-10-09T06:30:05.012Z,9.32
2018-10-09T06:31:04.885Z,9.34
2018-10-09T06:32:04.757Z,9.27
2018-10-09T06:33:04.630Z,9.31
2018-10-09T06:34:04.616Z,9.43
2018-10-09T06:35:04.388Z,9.43
2018-10-09T06:36:04.558Z,9.45
2018-10-09T06:37:04.214Z,9.52
2018-10-09T06:38:03.998Z,9.61
2018-10-09T06:39:03.874Z,9.60
2018-10-09T06:40:03.771Z,9.56
2018-10-09T06:41:03.618Z,9.49
2018-10-09T06:42:03.963Z,9.46
2018-10-09T06:43:03.364Z,9.42
2018-10-09T06:44:03.240Z,9.42
2018-10-09T06:45:03.113Z,9.49
2018-10-09T06:46:02.990Z,9.48
2018-10-09T06:47:02.886Z,9.43
2018-10-09T06:48:02.731Z,9.46
2018-10-09T06:49:02.607Z,9.42
2018-10-09T06:50:02.482Z,9.43
2018-10-09T06:51:02.355Z,9.46
2018-10-09T06:52:02.226Z,9.39
2018-10-09T06:53:02.102Z,9.53
2018-10-09T06:54:02.100Z,9.61
2018-10-09T06:55:01.847Z,9.70
2018-10-09T06:56:01.720Z,9.75
2018-10-09T06:57:01.594Z,10.01
2018-10-09T06:58:01.469Z,10.07
2018-10-09T06:59:01.343Z,10.24
2018-10-09T07:00:01.246Z,10.51
2018-10-09T07:01:01.090Z,10.63
2018-10-09T07:02:00.967Z,10.94
2018-10-09T07:03:00.837Z,11.17
2018-10-09T07:04:00.712Z,11.53
2018-10-09T07:05:00.586Z,11.82
2018-10-09T07:06:00.461Z,11.97
2018-10-09T07:07:00.337Z,12.13
2018-10-09T07:08:00.211Z,12.20
2018-10-09T07:09:00.086Z,12.31
2018-10-09T07:09:59.960Z,12.48
2018-10-09T07:10:59.845Z,12.64
2018-10-09T07:11:59.710Z,12.75
2018-10-09T07:12:59.586Z,12.81
2018-10-09T07:13:59.461Z,12.87
2018-10-09T07:14:59.336Z,13.03
2018-10-09T07:15:59.210Z,13.12
2018-10-09T07:16:59.159Z,13.30
2018-10-09T07:17:58.963Z,13.32
2018-10-09T07:18:58.838Z,13.47
2018-10-09T07:19:58.718Z,13.44
2018-10-09T07:20:58.591Z,13.41
2018-10-09T07:21:58.467Z,13.32
2018-10-09T07:22:58.344Z,13.37
2018-10-09T07:23:58.221Z,13.55
2018-10-09T07:24:58.099Z,13.71
2018-10-09T07:25:57.971Z,13.91
2018-10-09T07:26:57.849Z,14.12
2018-10-09T07:27:57.871Z,14.20
2018-10-09T07:28:57.601Z,14.07
2018-10-09T07:29:57.477Z,14.24
2018-10-09T07:30:57.353Z,14.17
2018-10-09T07:31:57.230Z,14.34
2018-10-09T07:32:57.107Z,14.35
2018-10-09T07:33:56.986Z,14.39
2018-10-09T07:34:56.861Z,14.38
2018-10-09T07:35:56.740Z,14.43
2018-10-09T07:36:56.616Z,14.32
2018-10-09T07:37:56.493Z,14.46
2018-10-09T07:38:56.369Z,14.69
2018-10-09T07:39:56.247Z,14.49
2018-10-09T07:40:56.126Z,14.64
2018-10-09T07:41:56.008Z,14.60
2018-10-09T07:42:55.879Z,14.68
2018-10-09T07:43:55.788Z,14.80
2018-10-09T07:44:55.636Z,14.90
2018-10-09T07:45:55.510Z,15.08
2018-10-09T07:46:55.390Z,15.19
2018-10-09T07:47:55.266Z,15.35
2018-10-09T07:48:55.144Z,15.49
2018-10-09T07:49:55.022Z,15.35
2018-10-09T07:50:54.901Z,15.28
2018-10-09T07:51:54.776Z,15.36
2018-10-09T07:52:54.729Z,15.28
2018-10-09T07:53:54.532Z,15.17
2018-10-09T07:54:54.435Z,15.02
2018-10-09T07:55:54.288Z,15.08
2018-10-09T07:56:54.167Z,15.11
2018-10-09T07:57:54.046Z,15.28
2018-10-09T07:58:53.923Z,15.26
2018-10-09T07:59:53.801Z,15.27
2018-10-09T08:00:53.678Z,15.36
2018-10-09T08:01:53.558Z,15.30
2018-10-09T08:02:53.437Z,15.33
2018-10-09T08:03:53.316Z,15.39
2018-10-09T08:04:53.298Z,15.31
2018-10-09T08:05:53.176Z,15.38
2018-10-09T08:06:52.947Z,15.49
2018-10-09T08:07:52.826Z,15.63
2018-10-09T08:08:52.727Z,15.78
2018-10-09T08:09:52.581Z,15.72
2018-10-09T08:10:52.628Z,15.85
2018-10-09T08:11:52.337Z,15.97
2018-10-09T08:12:52.215Z,16.23
2018-10-09T08:13:52.094Z,16.40
2018-10-09T08:14:51.977Z,16.35
2018-10-09T08:15:51.849Z,16.44
2018-10-09T08:16:51.777Z,16.58
2018-10-09T08:17:51.608Z,16.73
2018-10-09T08:18:51.511Z,16.52
2018-10-09T08:19:51.365Z,16.60
2018-10-09T08:20:51.246Z,16.56
2018-10-09T08:21:51.123Z,16.45
2018-10-09T08:22:51.098Z,16.58
2018-10-09T08:23:50.881Z,16.71
2018-10-09T08:24:50.814Z,16.62
2018-10-09T08:25:50.638Z,16.55
2018-10-09T08:26:50.533Z,16.53
2018-10-09T08:27:50.398Z,16.65
2018-10-09T08:28:50.275Z,16.67
2018-10-09T08:29:50.157Z,16.83
2018-10-09T08:30:50.032Z,16.93
2018-10-09T08:31:49.911Z,17.17
2018-10-09T08:32:49.791Z,17.28
2018-10-09T08:33:49.673Z,17.35
2018-10-09T08:34:49.550Z,17.46
2018-10-09T08:35:49.427Z,17.41
2018-10-09T08:36:49.420Z,17.54
2018-10-09T08:37:49.264Z,17.64
2018-10-09T08:38:49.068Z,17.70
2018-10-09T08:39:49.200Z,17.73
2018-10-09T08:40:48.839Z,17.92
2018-10-09T08:41:48.888Z,18.07
2018-10-09T08:42:48.590Z,18.06
2018-10-09T08:43:48.469Z,18.09
2018-10-09T08:44:48.345Z,18.22
2018-10-09T08:45:48.228Z,18.13
2018-10-09T08:46:48.109Z,18.17
2018-10-09T08:47:47.987Z,17.82
2018-10-09T08:48:47.874Z,17.91
2018-10-09T08:49:47.750Z,18.21
2018-10-09T08:50:47.633Z,18.33
2018-10-09T08:51:47.517Z,18.29
2018-10-09T08:52:47.389Z,18.50
2018-10-09T08:53:47.268Z,18.50
2018-10-09T08:54:47.153Z,18.52
2018-10-09T08:55:47.029Z,18.42
2018-10-09T08:56:46.910Z,18.64
2018-10-09T08:57:46.790Z,18.44
2018-10-09T08:58:46.671Z,18.36
2018-10-09T08:59:46.551Z,18.37
2018-10-09T09:00:46.435Z,18.31
2018-10-09T09:01:46.321Z,18.18
2018-10-09T09:02:46.194Z,18.25
2018-10-09T09:03:46.076Z,18.19
2018-10-09T09:04:45.957Z,18.44
2018-10-09T09:05:45.833Z,18.40
2018-10-09T09:06:45.714Z,18.47
2018-10-09T09:07:45.594Z,18.59
2018-10-09T09:08:45.477Z,18.72
2018-10-09T09:09:45.450Z,18.77
2018-10-09T09:10:45.236Z,18.73
2018-10-09T09:11:45.115Z,18.82
2018-10-09T09:12:44.996Z,19.08
2018-10-09T09:13:44.877Z,19.11
2018-10-09T09:14:44.759Z,19.23
2018-10-09T09:15:44.640Z,18.67
2018-10-09T09:16:44.520Z,18.49
2018-10-09T09:17:44.405Z,18.73
2018-10-09T09:18:44.282Z,18.90
2018-10-09T09:19:44.162Z,18.82
2018-10-09T09:20:44.178Z,19.01
2018-10-09T09:21:43.922Z,18.91
2018-10-09T09:22:43.803Z,18.91
2018-10-09T09:23:43.682Z,19.17
2018-10-09T09:24:43.565Z,19.36
2018-10-09T09:25:43.446Z,19.58
2018-10-09T09:26:43.558Z,19.80
2018-10-09T09:27:43.244Z,19.60
2018-10-09T09:28:43.091Z,19.80
2018-10-09T09:29:42.974Z,19.72
2018-10-09T09:30:42.853Z,19.75
2018-10-09T09:31:42.734Z,19.87
2018-10-09T09:32:42.614Z,19.66
2018-10-09T09:33:42.497Z,19.88
2018-10-09T09:34:42.377Z,19.73
2018-10-09T09:35:42.259Z,19.69
2018-10-09T09:36:42.141Z,19.50
2018-10-09T09:37:42.022Z,19.61
2018-10-09T09:38:41.905Z,19.70
2018-10-09T09:39:41.785Z,19.57
2018-10-09T09:40:41.666Z,19.48
2018-10-09T09:41:41.546Z,19.38
2018-10-09T09:42:41.427Z,19.50
2018-10-09T09:43:41.309Z,19.70
2018-10-09T09:44:41.189Z,19.93
2018-10-09T09:45:41.123Z,20.13
2018-10-09T09:46:40.953Z,20.31
2018-10-09T09:47:40.863Z,20.50
2018-10-09T09:48:40.717Z,20.80
2018-10-09T09:49:40.596Z,21.01
2018-10-09T09:50:40.479Z,21.26
2018-10-09T09:51:40.363Z,21.53
2018-10-09T09:52:40.245Z,21.53
2018-10-09T09:53:40.126Z,21.13
2018-10-09T09:54:40.007Z,21.23
2018-10-09T09:55:39.886Z,21.14
2018-10-09T09:56:39.770Z,20.98
2018-10-09T09:57:39.737Z,20.31
2018-10-09T09:58:39.689Z,20.41
2018-10-09T09:59:39.423Z,20.51
2018-10-09T10:00:39.300Z,20.56
2018-10-09T10:01:39.183Z,20.77
2018-10-09T10:02:39.064Z,21.11
2018-10-09T10:03:38.968Z,20.47
2018-10-09T10:04:38.828Z,20.33
2018-10-09T10:05:38.712Z,20.41
2018-10-09T10:06:38.594Z,20.74
2018-10-09T10:07:38.478Z,21.04
2018-10-09T10:08:38.360Z,21.29
2018-10-09T10:09:38.243Z,21.38
2018-10-09T10:10:38.130Z,20.96
2018-10-09T10:11:38.006Z,20.99
2018-10-09T10:12:37.889Z,21.02
2018-10-09T10:13:37.772Z,20.56
2018-10-09T10:14:37.654Z,20.38
2018-10-09T10:15:37.594Z,20.24
2018-10-09T10:16:37.419Z,20.62
2018-10-09T10:17:37.306Z,20.91
2018-10-09T10:18:37.202Z,20.96
2018-10-09T10:19:37.066Z,21.06
2018-10-09T10:20:36.952Z,20.83
2018-10-09T10:21:36.832Z,20.76
2018-10-09T10:22:36.713Z,21.16
2018-10-09T10:23:36.597Z,21.14
2018-10-09T10:24:36.479Z,21.20
2018-10-09T10:25:36.364Z,21.42
2018-10-09T10:26:36.245Z,21.38
2018-10-09T10:27:36.129Z,21.36
2018-10-09T10:28:36.010Z,21.51
2018-10-09T10:29:35.893Z,21.14
2018-10-09T10:30:35.776Z,21.48
2018-10-09T10:31:35.659Z,21.56
2018-10-09T10:32:35.542Z,21.97
2018-10-09T10:33:35.423Z,22.13
2018-10-09T10:34:35.307Z,22.12
2018-10-09T10:35:35.197Z,22.34
2018-10-09T10:36:35.088Z,22.54
2018-10-09T10:37:34.961Z,22.60
2018-10-09T10:38:34.836Z,22.53
2018-10-09T10:39:34.719Z,22.22
2018-10-09T10:40:34.603Z,21.85
2018-10-09T10:41:34.511Z,21.81
2018-10-09T10:42:34.375Z,21.99
2018-10-09T10:43:34.252Z,22.12
2018-10-09T10:44:34.134Z,21.75
2018-10-09T10:45:34.019Z,21.53
2018-10-09T10:46:33.901Z,21.39
2018-10-09T10:47:33.783Z,21.46
2018-10-09T10:48:33.666Z,21.42
2018-10-09T10:49:33.603Z,21.50
2018-10-09T10:50:33.434Z,21.75
2018-10-09T10:51:33.316Z,22.09
2018-10-09T10:52:33.199Z,22.23
2018-10-09T10:53:33.081Z,22.20
2018-10-09T10:54:33.123Z,21.76
2018-10-09T10:55:32.845Z,21.53
2018-10-09T10:56:32.728Z,21.45
2018-10-09T10:57:32.635Z,21.60
2018-10-09T10:58:32.498Z,21.90
2018-10-09T10:59:32.376Z,21.79
2018-10-09T11:00:32.258Z,21.78
2018-10-09T11:01:32.172Z,21.61
2018-10-09T11:02:32.022Z,21.60
2018-10-09T11:03:31.905Z,21.66
2018-10-09T11:04:31.787Z,21.63
2018-10-09T11:05:31.671Z,21.32
2018-10-09T11:06:31.561Z,21.27
2018-10-09T11:07:31.433Z,21.35
2018-10-09T11:08:31.373Z,21.20
2018-10-09T11:09:31.199Z,21.38
2018-10-09T11:10:31.079Z,21.32
2018-10-09T11:11:30.961Z,21.19
2018-10-09T11:12:30.844Z,21.30
2018-10-09T11:13:30.725Z,21.34
2018-10-09T11:14:30.634Z,21.41
2018-10-09T11:15:30.489Z,21.46
2018-10-09T11:16:30.372Z,21.54
2018-10-09T11:17:30.254Z,21.54
2018-10-09T11:18:30.136Z,21.60
2018-10-09T11:19:30.017Z,21.51
2018-10-09T11:20:29.903Z,21.39
2018-10-09T11:21:29.795Z,21.34
2018-10-09T11:22:29.661Z,21.08
2018-10-09T11:23:29.543Z,21.05
2018-10-09T11:24:29.425Z,21.13
2018-10-09T11:25:29.306Z,21.19
2018-10-09T11:26:29.188Z,21.30
2018-10-09T11:27:29.070Z,21.45
2018-10-09T11:28:28.951Z,21.44
2018-10-09T11:29:28.834Z,21.35
2018-10-09T11:30:28.715Z,21.30
2018-10-09T11:31:28.596Z,21.21
2018-10-09T11:32:28.523Z,21.27
2018-10-09T11:33:28.359Z,21.39
2018-10-09T11:34:28.241Z,21.48
2018-10-09T11:35:28.121Z,21.41
2018-10-09T11:36:28.005Z,21.32
2018-10-09T11:37:27.887Z,20.74
2018-10-09T11:38:27.767Z,20.68
2018-10-09T11:39:27.647Z,20.58
2018-10-09T11:40:27.531Z,20.59
2018-10-09T11:41:27.412Z,20.65
2018-10-09T11:42:27.292Z,20.58
2018-10-09T11:43:27.174Z,20.51
2018-10-09T11:44:27.056Z,20.46
2018-10-09T11:45:26.937Z,20.59
2018-10-09T11:46:26.822Z,20.50
2018-10-09T11:47:26.701Z,20.39
2018-10-09T11:48:26.580Z,20.47
2018-10-09T11:49:26.461Z,20.61
2018-10-09T11:50:26.343Z,20.76
2018-10-09T11:51:26.223Z,20.54
2018-10-09T11:52:26.104Z,20.58
2018-10-09T11:53:25.988Z,20.62
2018-10-09T11:54:25.870Z,20.74
2018-10-09T11:55:25.746Z,20.86
2018-10-09T11:56:25.629Z,20.99
2018-10-09T11:57:25.511Z,20.90
2018-10-09T11:58:25.400Z,20.84
2018-10-09T11:59:25.272Z,20.80
2018-10-09T12:00:25.152Z,20.76
2018-10-09T12:01:25.036Z,20.69
2018-10-09T12:02:24.918Z,20.49
2018-10-09T12:03:24.800Z,20.58
2018-10-09T12:04:24.678Z,20.71
2018-10-09T12:05:24.562Z,20.90
2018-10-09T12:06:24.440Z,20.90
2018-10-09T12:07:24.319Z,21.06
2018-10-09T12:08:24.201Z,21.20
2018-10-09T12:09:24.083Z,20.99
2018-10-09T12:10:23.964Z,21.24
2018-10-09T12:11:23.847Z,21.20
2018-10-09T12:12:23.729Z,20.98
2018-10-09T12:13:23.608Z,21.09
2018-10-09T12:14:23.492Z,21.16
2018-10-09T12:15:23.371Z,21.13
2018-10-09T12:16:23.253Z,21.32
2018-10-09T12:17:23.134Z,21.35
2018-10-09T12:18:23.016Z,21.54
2018-10-09T12:19:22.896Z,21.53
2018-10-09T12:20:22.776Z,21.27
2018-10-09T12:21:22.666Z,21.16
2018-10-09T12:22:22.541Z,21.08
2018-10-09T12:23:22.421Z,21.20
2018-10-09T12:24:22.304Z,21.36
2018-10-09T12:25:22.186Z,21.36
2018-10-09T12:26:22.066Z,21.38
2018-10-09T12:27:21.946Z,21.35
2018-10-09T12:28:21.833Z,21.46
2018-10-09T12:29:21.711Z,21.53
2018-10-09T12:30:21.594Z,21.56
2018-10-09T12:31:21.472Z,21.63
2018-10-09T12:32:21.354Z,21.63
2018-10-09T12:33:21.238Z,21.41
2018-10-09T12:34:21.117Z,21.17
2018-10-09T12:35:20.998Z,20.99
2018-10-09T12:36:20.882Z,20.95
2018-10-09T12:37:20.764Z,21.01
2018-10-09T12:38:20.709Z,21.05
2018-10-09T12:39:20.529Z,21.05
2018-10-09T12:40:20.407Z,20.71
2018-10-09T12:41:20.300Z,20.74
2018-10-09T12:42:20.172Z,20.71
2018-10-09T12:43:20.052Z,20.69
2018-10-09T12:44:20.031Z,20.83
2018-10-09T12:45:19.812Z,20.87
2018-10-09T12:46:19.697Z,20.96
2018-10-09T12:47:19.575Z,21.06
2018-10-09T12:48:19.455Z,21.01
2018-10-09T12:49:19.339Z,21.02
2018-10-09T12:50:19.220Z,20.93
2018-10-09T12:51:19.101Z,20.90
2018-10-09T12:52:18.983Z,20.95
2018-10-09T12:53:18.863Z,20.89
2018-10-09T12:54:18.747Z,21.09
2018-10-09T12:55:18.627Z,21.06
2018-10-09T12:56:18.509Z,21.24
2018-10-09T12:57:18.392Z,21.45
2018-10-09T12:58:18.271Z,21.64
2018-10-09T12:59:18.153Z,21.76
2018-10-09T13:00:18.035Z,21.79
2018-10-09T13:01:17.917Z,21.97
2018-10-09T13:02:17.800Z,21.92